الصفحة الرئيسية
METAR-TAF:

METAR-TAF

مطار :

مطار غران كناريا

كناريا الكبرى, إسبانيا

دائرة عرض: 27-56N, خط طول: 015-23W, ارتفاع: 23 متر

مراقبة الطقس الحالي

تاريخ ووقت الإصدار 10 دقيقة قبل الساعة 01:00UTC
ريح 19 عقدة من الشمال/الشمال الغربي
درجة الحرارة 21°درجة مئوية
الرطوبة 83%
ضغط 1019 hPa
الرؤية 10 كم أو أكثر
غيوم مفككة على ارتفاع 2500 قدم

METAR: GCLP 170100Z 34019KT 9999 BKN025 21/18 Q1019 NOSIG

زمن: 02:10 (01:10 UTC)

توقعات

تاريخ ووقت الإصدار 3ساعات و 37 دقيقة قبل الساعة 21:33UTC
التوقعات صالحة من16 الساعة 21 UTC إلى 17 الساعة 21 UTC
ريح 20 عقدة من الشمال
الرؤية 10 كم أو أكثر
غيوم مفككة على ارتفاع 3000 قدم
نظرية الاحتمالات 40% :
مؤقت
من 16 الساعة 21 UTC إلى 17 الساعة 21 UTC
ريح 20 عقدة من الشمال تتزايد حتى 30 عقدة

TAF: GCLP 162133Z 1621/1721 01020KT 9999 BKN030 TX26/1714Z TN20/1705Z PROB40 TEMPO 1621/1721 01020G30KT

أرصاد الطقس والتوقعات من أكثر من 4000 مطار (تقارير الطقس للمطار METAR والتنبؤ بالطقس بالمطارTAF).

المحطات المتاحة هي النقط الصفراء والحمراء على الخريطة.

حرك المؤشر فوق النقطة لمعرفة اسم المحطة.

ثم انقر لمعرفة أرصاد وتوقعات الطقس.

لتغيير الخارطة: اضغط على الأزرار الخضراء مع رمز الصليب الأسود للتكبير. على الزر الأخضر مع شرطة للتصغير، أو على الأسهم الخضراء للخرائط المجاورة.


METAR-TAF: